sensor_id;sensor_type;location;lat;lon;timestamp;pressure;altitude;pressure_sealevel;temperature
53412;BMP280;39307;52.870;13.660;2022-09-09T00:04:39;100454.03;;;16.53
53412;BMP280;39307;52.870;13.660;2022-09-09T00:07:28;100448.50;;;16.55
53412;BMP280;39307;52.870;13.660;2022-09-09T00:13:05;100444.13;;;16.49
53412;BMP280;39307;52.870;13.660;2022-09-09T00:15:52;100442.31;;;16.49
53412;BMP280;39307;52.870;13.660;2022-09-09T00:21:28;100432.56;;;16.50
53412;BMP280;39307;52.870;13.660;2022-09-09T00:23:58;100441.72;;;16.47
53412;BMP280;39307;52.870;13.660;2022-09-09T00:26:51;100434.59;;;16.48
53412;BMP280;39307;52.870;13.660;2022-09-09T00:29:33;100435.41;;;16.48
53412;BMP280;39307;52.870;13.660;2022-09-09T00:32:18;100447.69;;;16.43
53412;BMP280;39307;52.870;13.660;2022-09-09T00:34:52;100445.28;;;16.42
53412;BMP280;39307;52.870;13.660;2022-09-09T00:37:22;100447.13;;;16.41
53412;BMP280;39307;52.870;13.660;2022-09-09T00:39:51;100448.59;;;16.37
53412;BMP280;39307;52.870;13.660;2022-09-09T00:42:26;100446.09;;;16.42
53412;BMP280;39307;52.870;13.660;2022-09-09T00:47:51;100444.69;;;16.40
53412;BMP280;39307;52.870;13.660;2022-09-09T01:01:44;100448.69;;;16.31
53412;BMP280;39307;52.870;13.660;2022-09-09T01:04:16;100445.25;;;16.30
53412;BMP280;39307;52.870;13.660;2022-09-09T01:06:53;100449.28;;;16.33
53412;BMP280;39307;52.870;13.660;2022-09-09T01:12:26;100453.63;;;16.27
53412;BMP280;39307;52.870;13.660;2022-09-09T01:15:09;100461.34;;;16.29
53412;BMP280;39307;52.870;13.660;2022-09-09T01:23:28;100454.88;;;16.25
53412;BMP280;39307;52.870;13.660;2022-09-09T01:28:50;100465.75;;;16.17
53412;BMP280;39307;52.870;13.660;2022-09-09T01:31:38;100469.22;;;16.17
53412;BMP280;39307;52.870;13.660;2022-09-09T01:34:15;100470.00;;;16.18
53412;BMP280;39307;52.870;13.660;2022-09-09T01:36:59;100475.88;;;16.20
53412;BMP280;39307;52.870;13.660;2022-09-09T01:39:28;100460.94;;;16.14
53412;BMP280;39307;52.870;13.660;2022-09-09T01:41:55;100464.16;;;16.16
53412;BMP280;39307;52.870;13.660;2022-09-09T01:44:23;100460.25;;;16.18
53412;BMP280;39307;52.870;13.660;2022-09-09T01:46:50;100465.75;;;16.17
53412;BMP280;39307;52.870;13.660;2022-09-09T01:49:17;100462.97;;;16.12
53412;BMP280;39307;52.870;13.660;2022-09-09T01:51:49;100467.66;;;16.10
53412;BMP280;39307;52.870;13.660;2022-09-09T01:54:17;100463.28;;;16.04
53412;BMP280;39307;52.870;13.660;2022-09-09T01:57:06;100463.84;;;16.06
53412;BMP280;39307;52.870;13.660;2022-09-09T01:59:52;100459.59;;;16.05
53412;BMP280;39307;52.870;13.660;2022-09-09T02:02:35;100461.44;;;16.05
53412;BMP280;39307;52.870;13.660;2022-09-09T02:08:15;100461.56;;;16.10
53412;BMP280;39307;52.870;13.660;2022-09-09T02:10:56;100459.16;;;16.08
53412;BMP280;39307;52.870;13.660;2022-09-09T02:13:25;100464.44;;;16.08
53412;BMP280;39307;52.870;13.660;2022-09-09T02:16:07;100460.53;;;16.11
53412;BMP280;39307;52.870;13.660;2022-09-09T02:18:48;100457.91;;;16.11
53412;BMP280;39307;52.870;13.660;2022-09-09T02:21:18;100458.66;;;16.17
53412;BMP280;39307;52.870;13.660;2022-09-09T02:23:47;100466.56;;;16.17
53412;BMP280;39307;52.870;13.660;2022-09-09T02:26:14;100469.91;;;16.24
53412;BMP280;39307;52.870;13.660;2022-09-09T02:28:42;100467.59;;;16.17
53412;BMP280;39307;52.870;13.660;2022-09-09T02:31:08;100459.75;;;16.10
53412;BMP280;39307;52.870;13.660;2022-09-09T02:33:42;100461.38;;;16.11
53412;BMP280;39307;52.870;13.660;2022-09-09T02:36:13;100463.19;;;16.11
53412;BMP280;39307;52.870;13.660;2022-09-09T02:38:45;100462.59;;;16.09
53412;BMP280;39307;52.870;13.660;2022-09-09T02:41:12;100464.06;;;16.05
53412;BMP280;39307;52.870;13.660;2022-09-09T02:43:38;100462.84;;;16.07
53412;BMP280;39307;52.870;13.660;2022-09-09T02:46:36;100467.16;;;16.02
53412;BMP280;39307;52.870;13.660;2022-09-09T02:49:25;100469.81;;;16.02
53412;BMP280;39307;52.870;13.660;2022-09-09T02:54:34;100463.94;;;16.00
53412;BMP280;39307;52.870;13.660;2022-09-09T02:57:11;100485.94;;;15.94
53412;BMP280;39307;52.870;13.660;2022-09-09T02:59:39;100471.50;;;15.96
53412;BMP280;39307;52.870;13.660;2022-09-09T03:02:06;100476.63;;;15.91
53412;BMP280;39307;52.870;13.660;2022-09-09T03:04:32;100481.09;;;15.91
53412;BMP280;39307;52.870;13.660;2022-09-09T03:06:59;100486.25;;;15.86
53412;BMP280;39307;52.870;13.660;2022-09-09T03:09:25;100484.78;;;15.90
53412;BMP280;39307;52.870;13.660;2022-09-09T03:11:52;100480.91;;;15.92
53412;BMP280;39307;52.870;13.660;2022-09-09T03:14:18;100479.34;;;15.85
53412;BMP280;39307;52.870;13.660;2022-09-09T03:16:44;100478.44;;;15.80
53412;BMP280;39307;52.870;13.660;2022-09-09T03:19:11;100477.75;;;15.66
53412;BMP280;39307;52.870;13.660;2022-09-09T03:21:37;100474.03;;;15.74
53412;BMP280;39307;52.870;13.660;2022-09-09T03:24:04;100478.44;;;15.80
53412;BMP280;39307;52.870;13.660;2022-09-09T03:26:30;100482.88;;;15.79
53412;BMP280;39307;52.870;13.660;2022-09-09T03:28:57;100488.75;;;15.81
53412;BMP280;39307;52.870;13.660;2022-09-09T03:31:23;100487.59;;;15.77
53412;BMP280;39307;52.870;13.660;2022-09-09T03:33:50;100490.75;;;15.68
53412;BMP280;39307;52.870;13.660;2022-09-09T03:36:17;100487.44;;;15.55
53412;BMP280;39307;52.870;13.660;2022-09-09T03:38:43;100477.31;;;15.52
53412;BMP280;39307;52.870;13.660;2022-09-09T03:41:10;100478.88;;;15.59
53412;BMP280;39307;52.870;13.660;2022-09-09T03:43:36;100475.19;;;15.60
53412;BMP280;39307;52.870;13.660;2022-09-09T03:46:02;100474.03;;;15.56
53412;BMP280;39307;52.870;13.660;2022-09-09T03:48:28;100481.16;;;15.56
53412;BMP280;39307;52.870;13.660;2022-09-09T03:50:55;100479.06;;;15.58
53412;BMP280;39307;52.870;13.660;2022-09-09T03:53:23;100478.28;;;15.57
53412;BMP280;39307;52.870;13.660;2022-09-09T03:55:51;100480.31;;;15.55
53412;BMP280;39307;52.870;13.660;2022-09-09T03:58:18;100489.44;;;15.59
53412;BMP280;39307;52.870;13.660;2022-09-09T04:00:59;100477.69;;;15.55
53412;BMP280;39307;52.870;13.660;2022-09-09T04:03:26;100476.31;;;15.53
53412;BMP280;39307;52.870;13.660;2022-09-09T04:05:54;100486.72;;;15.48
53412;BMP280;39307;52.870;13.660;2022-09-09T04:08:22;100484.13;;;15.41
53412;BMP280;39307;52.870;13.660;2022-09-09T04:10:49;100479.22;;;15.27
53412;BMP280;39307;52.870;13.660;2022-09-09T04:13:16;100492.41;;;15.27
53412;BMP280;39307;52.870;13.660;2022-09-09T04:15:43;100497.41;;;15.35
53412;BMP280;39307;52.870;13.660;2022-09-09T04:18:10;100489.50;;;15.35
53412;BMP280;39307;52.870;13.660;2022-09-09T04:20:37;100502.31;;;15.31
53412;BMP280;39307;52.870;13.660;2022-09-09T04:23:03;100514.72;;;15.25
53412;BMP280;39307;52.870;13.660;2022-09-09T04:25:30;100519.88;;;15.20
53412;BMP280;39307;52.870;13.660;2022-09-09T04:27:57;100521.97;;;15.11
53412;BMP280;39307;52.870;13.660;2022-09-09T04:30:24;100522.19;;;15.10
53412;BMP280;39307;52.870;13.660;2022-09-09T04:32:51;100513.19;;;15.17
53412;BMP280;39307;52.870;13.660;2022-09-09T04:35:17;100518.72;;;15.09
53412;BMP280;39307;52.870;13.660;2022-09-09T04:37:43;100522.63;;;15.07
53412;BMP280;39307;52.870;13.660;2022-09-09T04:40:09;100517.34;;;15.07
53412;BMP280;39307;52.870;13.660;2022-09-09T04:42:36;100517.34;;;15.07
53412;BMP280;39307;52.870;13.660;2022-09-09T04:45:03;100519.13;;;15.06
53412;BMP280;39307;52.870;13.660;2022-09-09T04:47:29;100518.31;;;15.06
53412;BMP280;39307;52.870;13.660;2022-09-09T04:49:56;100511.84;;;15.08
53412;BMP280;39307;52.870;13.660;2022-09-09T04:52:22;100508.34;;;15.14
53412;BMP280;39307;52.870;13.660;2022-09-09T04:54:48;100513.25;;;15.11
53412;BMP280;39307;52.870;13.660;2022-09-09T04:57:15;100515.50;;;15.07
53412;BMP280;39307;52.870;13.660;2022-09-09T04:59:41;100515.75;;;15.00
53412;BMP280;39307;52.870;13.660;2022-09-09T05:02:07;100519.34;;;15.05
53412;BMP280;39307;52.870;13.660;2022-09-09T05:04:34;100520.59;;;15.02
53412;BMP280;39307;52.870;13.660;2022-09-09T05:07:00;100522.63;;;15.07
53412;BMP280;39307;52.870;13.660;2022-09-09T05:09:26;100522.66;;;14.94
53412;BMP280;39307;52.870;13.660;2022-09-09T05:11:53;100527.56;;;14.91
53412;BMP280;39307;52.870;13.660;2022-09-09T05:14:19;100528.81;;;14.88
53412;BMP280;39307;52.870;13.660;2022-09-09T05:16:46;100530.44;;;14.89
53412;BMP280;39307;52.870;13.660;2022-09-09T05:19:12;100536.72;;;14.88
53412;BMP280;39307;52.870;13.660;2022-09-09T05:21:38;100549.31;;;14.86
53412;BMP280;39307;52.870;13.660;2022-09-09T05:24:04;100543.44;;;14.84
53412;BMP280;39307;52.870;13.660;2022-09-09T05:26:31;100542.81;;;14.89
53412;BMP280;39307;52.870;13.660;2022-09-09T05:28:57;100545.59;;;14.94
53412;BMP280;39307;52.870;13.660;2022-09-09T05:31:23;100542.09;;;15.00
53412;BMP280;39307;52.870;13.660;2022-09-09T05:33:50;100543.94;;;14.99
53412;BMP280;39307;52.870;13.660;2022-09-09T05:36:19;100538.44;;;15.07
53412;BMP280;39307;52.870;13.660;2022-09-09T05:38:46;100541.06;;;15.07
53412;BMP280;39307;52.870;13.660;2022-09-09T05:41:13;100533.97;;;15.07
53412;BMP280;39307;52.870;13.660;2022-09-09T05:43:40;100535.38;;;15.03
53412;BMP280;39307;52.870;13.660;2022-09-09T05:46:11;100534.19;;;15.00
53412;BMP280;39307;52.870;13.660;2022-09-09T05:48:42;100544.38;;;14.96
53412;BMP280;39307;52.870;13.660;2022-09-09T05:51:11;100545.59;;;14.94
53412;BMP280;39307;52.870;13.660;2022-09-09T05:53:37;100545.59;;;14.94
53412;BMP280;39307;52.870;13.660;2022-09-09T05:56:19;100542.53;;;14.97
53412;BMP280;39307;52.870;13.660;2022-09-09T05:58:46;100552.66;;;15.00
53412;BMP280;39307;52.870;13.660;2022-09-09T06:01:15;100551.63;;;15.07
53412;BMP280;39307;52.870;13.660;2022-09-09T06:03:43;100548.75;;;15.08
53412;BMP280;39307;52.870;13.660;2022-09-09T06:06:15;100543.28;;;15.10
53412;BMP280;39307;52.870;13.660;2022-09-09T06:08:42;100554.41;;;15.05
53412;BMP280;39307;52.870;13.660;2022-09-09T06:11:11;100549.78;;;15.07
53412;BMP280;39307;52.870;13.660;2022-09-09T06:13:38;100555.06;;;15.07
53412;BMP280;39307;52.870;13.660;2022-09-09T06:16:05;100557.84;;;15.12
53412;BMP280;39307;52.870;13.660;2022-09-09T06:18:32;100559.41;;;15.20
53412;BMP280;39307;52.870;13.660;2022-09-09T06:21:03;100553.03;;;15.27
53412;BMP280;39307;52.870;13.660;2022-09-09T06:23:30;100558.75;;;15.24
53412;BMP280;39307;52.870;13.660;2022-09-09T06:28:34;100549.84;;;15.25
53412;BMP280;39307;52.870;13.660;2022-09-09T06:31:01;100546.97;;;15.27
53412;BMP280;39307;52.870;13.660;2022-09-09T06:33:32;100544.09;;;15.28
53412;BMP280;39307;52.870;13.660;2022-09-09T06:35:58;100544.69;;;15.30
53412;BMP280;39307;52.870;13.660;2022-09-09T06:38:25;100555.50;;;15.29
53412;BMP280;39307;52.870;13.660;2022-09-09T06:40:55;100548.56;;;15.28
53412;BMP280;39307;52.870;13.660;2022-09-09T06:43:25;100554.22;;;15.31
53412;BMP280;39307;52.870;13.660;2022-09-09T06:46:00;100546.03;;;15.39
53412;BMP280;39307;52.870;13.660;2022-09-09T06:48:27;100544.22;;;15.39
53412;BMP280;39307;52.870;13.660;2022-09-09T06:51:07;100550.50;;;15.38
53412;BMP280;39307;52.870;13.660;2022-09-09T06:53:35;100552.34;;;15.38
53412;BMP280;39307;52.870;13.660;2022-09-09T06:56:02;100554.75;;;15.39
53412;BMP280;39307;52.870;13.660;2022-09-09T06:58:44;100556.16;;;15.42
53412;BMP280;39307;52.870;13.660;2022-09-09T07:01:17;100553.25;;;15.50
53412;BMP280;39307;52.870;13.660;2022-09-09T07:03:47;100553.56;;;15.59
53412;BMP280;39307;52.870;13.660;2022-09-09T07:06:21;100554.97;;;15.62
53412;BMP280;39307;52.870;13.660;2022-09-09T07:08:53;100551.28;;;15.63
53412;BMP280;39307;52.870;13.660;2022-09-09T07:11:21;100552.69;;;15.65
53412;BMP280;39307;52.870;13.660;2022-09-09T07:13:48;100554.81;;;15.75
53412;BMP280;39307;52.870;13.660;2022-09-09T07:16:18;100556.34;;;15.82
53412;BMP280;39307;52.870;13.660;2022-09-09T07:18:44;100558.91;;;15.88
53412;BMP280;39307;52.870;13.660;2022-09-09T07:21:13;100557.13;;;16.00
53412;BMP280;39307;52.870;13.660;2022-09-09T07:23:40;100560.28;;;16.09
53412;BMP280;39307;52.870;13.660;2022-09-09T07:26:10;100566.69;;;16.19
53412;BMP280;39307;52.870;13.660;2022-09-09T07:28:37;100570.84;;;16.44
53412;BMP280;39307;52.870;13.660;2022-09-09T07:31:05;100564.66;;;16.50
53412;BMP280;39307;52.870;13.660;2022-09-09T07:33:33;100570.06;;;16.55
53412;BMP280;39307;52.870;13.660;2022-09-09T07:36:12;100566.75;;;17.00
53412;BMP280;39307;52.870;13.660;2022-09-09T07:38:44;100568.22;;;17.70
53412;BMP280;39307;52.870;13.660;2022-09-09T07:41:20;100560.22;;;18.43
53412;BMP280;39307;52.870;13.660;2022-09-09T07:43:48;100543.25;;;18.99
53412;BMP280;39307;52.870;13.660;2022-09-09T07:46:17;100546.44;;;19.49
53412;BMP280;39307;52.870;13.660;2022-09-09T07:48:45;100535.16;;;19.96
53412;BMP280;39307;52.870;13.660;2022-09-09T07:51:14;100549.13;;;20.29
53412;BMP280;39307;52.870;13.660;2022-09-09T07:53:40;100547.50;;;20.75
53412;BMP280;39307;52.870;13.660;2022-09-09T07:56:09;100544.94;;;21.16
53412;BMP280;39307;52.870;13.660;2022-09-09T07:58:37;100544.13;;;21.46
53412;BMP280;39307;52.870;13.660;2022-09-09T08:01:24;100546.00;;;21.97
53412;BMP280;39307;52.870;13.660;2022-09-09T08:03:59;100542.44;;;22.37
53412;BMP280;39307;52.870;13.660;2022-09-09T08:06:30;100534.25;;;22.63
53412;BMP280;39307;52.870;13.660;2022-09-09T08:08:57;100526.81;;;22.85
53412;BMP280;39307;52.870;13.660;2022-09-09T08:11:25;100539.38;;;23.09
53412;BMP280;39307;52.870;13.660;2022-09-09T08:13:52;100526.28;;;23.27
53412;BMP280;39307;52.870;13.660;2022-09-09T08:16:24;100535.09;;;23.47
53412;BMP280;39307;52.870;13.660;2022-09-09T08:18:51;100532.38;;;23.62
53412;BMP280;39307;52.870;13.660;2022-09-09T08:21:20;100533.09;;;23.97
53412;BMP280;39307;52.870;13.660;2022-09-09T08:23:48;100531.13;;;24.22
53412;BMP280;39307;52.870;13.660;2022-09-09T08:26:24;100535.53;;;24.46
53412;BMP280;39307;52.870;13.660;2022-09-09T08:28:52;100535.53;;;24.46
53412;BMP280;39307;52.870;13.660;2022-09-09T08:31:33;100540.88;;;24.51
53412;BMP280;39307;52.870;13.660;2022-09-09T08:34:01;100535.91;;;24.72
53412;BMP280;39307;52.870;13.660;2022-09-09T08:36:29;100536.16;;;24.76
53412;BMP280;39307;52.870;13.660;2022-09-09T08:38:57;100538.28;;;24.74
53412;BMP280;39307;52.870;13.660;2022-09-09T08:44:31;100543.41;;;24.33
53412;BMP280;39307;52.870;13.660;2022-09-09T08:55:23;100550.59;;;23.20
53412;BMP280;39307;52.870;13.660;2022-09-09T08:57:54;100551.13;;;23.08
53412;BMP280;39307;52.870;13.660;2022-09-09T09:00:21;100556.44;;;22.78
53412;BMP280;39307;52.870;13.660;2022-09-09T09:05:46;100568.13;;;22.67
53412;BMP280;39307;52.870;13.660;2022-09-09T09:08:37;100550.59;;;22.96
53412;BMP280;39307;52.870;13.660;2022-09-09T09:11:07;100551.69;;;23.05
53412;BMP280;39307;52.870;13.660;2022-09-09T09:18:47;100553.81;;;22.93
53412;BMP280;39307;52.870;13.660;2022-09-09T09:21:29;100559.09;;;22.83
53412;BMP280;39307;52.870;13.660;2022-09-09T09:24:01;100556.38;;;22.58
53412;BMP280;39307;52.870;13.660;2022-09-09T09:26:35;100560.88;;;22.38
53412;BMP280;39307;52.870;13.660;2022-09-09T09:29:15;100559.53;;;22.36
53412;BMP280;39307;52.870;13.660;2022-09-09T09:31:53;100563.97;;;22.16
53412;BMP280;39307;52.870;13.660;2022-09-09T09:34:20;100559.47;;;22.21
53412;BMP280;39307;52.870;13.660;2022-09-09T09:36:57;100561.53;;;22.04
53412;BMP280;39307;52.870;13.660;2022-09-09T09:39:29;100574.25;;;21.93
53412;BMP280;39307;52.870;13.660;2022-09-09T09:41:55;100557.22;;;21.99
53412;BMP280;39307;52.870;13.660;2022-09-09T09:44:29;100566.78;;;21.95
53412;BMP280;39307;52.870;13.660;2022-09-09T09:47:14;100564.38;;;21.93
53412;BMP280;39307;52.870;13.660;2022-09-09T09:50:01;100560.66;;;21.89
53412;BMP280;39307;52.870;13.660;2022-09-09T09:52:29;100563.03;;;21.91
53412;BMP280;39307;52.870;13.660;2022-09-09T09:54:57;100559.56;;;21.95
53412;BMP280;39307;52.870;13.660;2022-09-09T09:57:29;100566.25;;;21.93
53412;BMP280;39307;52.870;13.660;2022-09-09T10:02:39;100561.69;;;21.83
53412;BMP280;39307;52.870;13.660;2022-09-09T10:07:39;100547.06;;;22.66
53412;BMP280;39307;52.870;13.660;2022-09-09T10:10:11;100547.66;;;23.17
53412;BMP280;39307;52.870;13.660;2022-09-09T10:12:58;100545.50;;;23.68
53412;BMP280;39307;52.870;13.660;2022-09-09T10:15:38;100552.38;;;23.79
53412;BMP280;39307;52.870;13.660;2022-09-09T10:26:55;100540.91;;;24.89
53412;BMP280;39307;52.870;13.660;2022-09-09T10:32:39;100542.53;;;24.90
53412;BMP280;39307;52.870;13.660;2022-09-09T10:35:33;100545.19;;;24.90
53412;BMP280;39307;52.870;13.660;2022-09-09T10:38:15;100548.69;;;24.42
53412;BMP280;39307;52.870;13.660;2022-09-09T10:43:50;100543.50;;;24.56
53412;BMP280;39307;52.870;13.660;2022-09-09T10:46:43;100552.69;;;24.45
53412;BMP280;39307;52.870;13.660;2022-09-09T10:51:55;100548.75;;;24.70
53412;BMP280;39307;52.870;13.660;2022-09-09T10:57:05;100543.97;;;24.67
53412;BMP280;39307;52.870;13.660;2022-09-09T10:59:42;100550.16;;;24.63
53412;BMP280;39307;52.870;13.660;2022-09-09T11:02:21;100547.66;;;24.76
53412;BMP280;39307;52.870;13.660;2022-09-09T11:07:31;100554.25;;;24.93
53412;BMP280;39307;52.870;13.660;2022-09-09T11:10:14;100534.75;;;24.88
53412;BMP280;39307;52.870;13.660;2022-09-09T11:12:46;100543.72;;;24.64
53412;BMP280;39307;52.870;13.660;2022-09-09T11:15:26;100543.25;;;24.57
53412;BMP280;39307;52.870;13.660;2022-09-09T11:18:01;100549.16;;;24.49
53412;BMP280;39307;52.870;13.660;2022-09-09T11:20:30;100553.16;;;24.52
53412;BMP280;39307;52.870;13.660;2022-09-09T11:23:10;100558.81;;;24.50
53412;BMP280;39307;52.870;13.660;2022-09-09T11:25:42;100551.34;;;24.47
53412;BMP280;39307;52.870;13.660;2022-09-09T11:28:30;100551.06;;;24.49
53412;BMP280;39307;52.870;13.660;2022-09-09T11:31:21;100546.25;;;24.46
53412;BMP280;39307;52.870;13.660;2022-09-09T11:44:33;100547.72;;;24.14
53412;BMP280;39307;52.870;13.660;2022-09-09T11:47:00;100541.25;;;24.30
53412;BMP280;39307;52.870;13.660;2022-09-09T11:52:34;100529.69;;;24.82
53412;BMP280;39307;52.870;13.660;2022-09-09T11:55:25;100529.53;;;24.68
53412;BMP280;39307;52.870;13.660;2022-09-09T12:00:47;100530.84;;;25.65
53412;BMP280;39307;52.870;13.660;2022-09-09T12:03:50;100528.72;;;25.62
53412;BMP280;39307;52.870;13.660;2022-09-09T12:06:29;100526.47;;;25.46
53412;BMP280;39307;52.870;13.660;2022-09-09T12:09:04;100528.91;;;25.70
53412;BMP280;39307;52.870;13.660;2022-09-09T12:11:32;100522.47;;;25.71
53412;BMP280;39307;52.870;13.660;2022-09-09T12:14:00;100513.97;;;25.87
53412;BMP280;39307;52.870;13.660;2022-09-09T12:16:34;100513.19;;;25.87
53412;BMP280;39307;52.870;13.660;2022-09-09T12:19:14;100507.41;;;26.39
53412;BMP280;39307;52.870;13.660;2022-09-09T12:24:25;100512.56;;;26.54
53412;BMP280;39307;52.870;13.660;2022-09-09T12:27:16;100513.06;;;25.97
53412;BMP280;39307;52.870;13.660;2022-09-09T12:29:58;100513.50;;;25.57
53412;BMP280;39307;52.870;13.660;2022-09-09T12:32:28;100517.41;;;25.14
53412;BMP280;39307;52.870;13.660;2022-09-09T12:34:59;100517.31;;;24.95
53412;BMP280;39307;52.870;13.660;2022-09-09T12:40:03;100515.97;;;25.26
53412;BMP280;39307;52.870;13.660;2022-09-09T12:42:30;100510.53;;;25.03
53412;BMP280;39307;52.870;13.660;2022-09-09T12:45:03;100501.09;;;25.10
53412;BMP280;39307;52.870;13.660;2022-09-09T12:47:37;100500.91;;;25.30
53412;BMP280;39307;52.870;13.660;2022-09-09T12:50:11;100498.22;;;25.30
53412;BMP280;39307;52.870;13.660;2022-09-09T12:52:41;100507.50;;;25.14
53412;BMP280;39307;52.870;13.660;2022-09-09T12:55:07;100497.13;;;24.70
53412;BMP280;39307;52.870;13.660;2022-09-09T12:57:43;100497.13;;;24.65
53412;BMP280;39307;52.870;13.660;2022-09-09T13:00:17;100486.97;;;24.67
53412;BMP280;39307;52.870;13.660;2022-09-09T13:02:53;100488.00;;;24.71
53412;BMP280;39307;52.870;13.660;2022-09-09T13:05:27;100494.34;;;24.85
53412;BMP280;39307;52.870;13.660;2022-09-09T13:08:04;100488.53;;;24.73
53412;BMP280;39307;52.870;13.660;2022-09-09T13:10:35;100488.53;;;24.73
53412;BMP280;39307;52.870;13.660;2022-09-09T13:13:13;100493.22;;;24.53
53412;BMP280;39307;52.870;13.660;2022-09-09T13:15:47;100507.69;;;24.52
53412;BMP280;39307;52.870;13.660;2022-09-09T13:18:15;100504.94;;;24.62
53412;BMP280;39307;52.870;13.660;2022-09-09T13:20:47;100495.31;;;24.61
53412;BMP280;39307;52.870;13.660;2022-09-09T13:23:15;100508.84;;;24.41
53412;BMP280;39307;52.870;13.660;2022-09-09T13:26:00;100503.59;;;24.21
53412;BMP280;39307;52.870;13.660;2022-09-09T13:28:29;100497.97;;;24.13
53412;BMP280;39307;52.870;13.660;2022-09-09T13:31:00;100499.13;;;24.02
53412;BMP280;39307;52.870;13.660;2022-09-09T13:33:45;100501.59;;;23.84
53412;BMP280;39307;52.870;13.660;2022-09-09T13:36:12;100496.75;;;23.91
53412;BMP280;39307;52.870;13.660;2022-09-09T13:38:54;100494.31;;;23.99
53412;BMP280;39307;52.870;13.660;2022-09-09T13:41:22;100489.81;;;23.80
53412;BMP280;39307;52.870;13.660;2022-09-09T13:43:49;100486.69;;;23.63
53412;BMP280;39307;52.870;13.660;2022-09-09T13:46:28;100484.81;;;23.64
53412;BMP280;39307;52.870;13.660;2022-09-09T13:49:00;100485.38;;;23.66
53412;BMP280;39307;52.870;13.660;2022-09-09T13:51:42;100487.50;;;23.59
53412;BMP280;39307;52.870;13.660;2022-09-09T13:54:12;100480.31;;;23.40
53412;BMP280;39307;52.870;13.660;2022-09-09T13:56:40;100481.38;;;23.44
53412;BMP280;39307;52.870;13.660;2022-09-09T13:59:12;100485.13;;;23.52
53412;BMP280;39307;52.870;13.660;2022-09-09T14:01:39;100489.94;;;23.50
53412;BMP280;39307;52.870;13.660;2022-09-09T14:04:06;100490.47;;;23.43
53412;BMP280;39307;52.870;13.660;2022-09-09T14:06:32;100486.22;;;23.32
53412;BMP280;39307;52.870;13.660;2022-09-09T14:08:59;100492.63;;;23.36
53412;BMP280;39307;52.870;13.660;2022-09-09T14:11:26;100485.66;;;23.40
53412;BMP280;39307;52.870;13.660;2022-09-09T14:13:53;100494.75;;;23.39
53412;BMP280;39307;52.870;13.660;2022-09-09T14:16:19;100495.03;;;23.32
53412;BMP280;39307;52.870;13.660;2022-09-09T14:18:46;100498.50;;;23.28
53412;BMP280;39307;52.870;13.660;2022-09-09T14:21:12;100493.44;;;23.26
53412;BMP280;39307;52.870;13.660;2022-09-09T14:23:39;100493.72;;;23.15
53412;BMP280;39307;52.870;13.660;2022-09-09T14:26:05;100492.66;;;23.06
53412;BMP280;39307;52.870;13.660;2022-09-09T14:28:32;100492.13;;;23.09
53412;BMP280;39307;52.870;13.660;2022-09-09T14:31:05;100493.19;;;22.93
53412;BMP280;39307;52.870;13.660;2022-09-09T14:33:32;100499.09;;;22.95
53412;BMP280;39307;52.870;13.660;2022-09-09T14:36:02;100498.28;;;23.05
53412;BMP280;39307;52.870;13.660;2022-09-09T14:38:34;100494.78;;;23.04
53412;BMP280;39307;52.870;13.660;2022-09-09T14:41:01;100495.34;;;22.96
53412;BMP280;39307;52.870;13.660;2022-09-09T14:43:27;100491.31;;;22.94
53412;BMP280;39307;52.870;13.660;2022-09-09T14:45:53;100495.06;;;22.88
53412;BMP280;39307;52.870;13.660;2022-09-09T14:48:19;100502.53;;;22.91
53412;BMP280;39307;52.870;13.660;2022-09-09T14:50:46;100494.00;;;22.84
53412;BMP280;39307;52.870;13.660;2022-09-09T14:53:12;100495.31;;;22.72
53412;BMP280;39307;52.870;13.660;2022-09-09T14:55:38;100493.97;;;22.69
53412;BMP280;39307;52.870;13.660;2022-09-09T14:58:05;100486.78;;;22.65
53412;BMP280;39307;52.870;13.660;2022-09-09T15:00:31;100490.75;;;22.62
53412;BMP280;39307;52.870;13.660;2022-09-09T15:02:57;100497.16;;;22.61
53412;BMP280;39307;52.870;13.660;2022-09-09T15:05:24;100493.41;;;22.58
53412;BMP280;39307;52.870;13.660;2022-09-09T15:07:50;100498.72;;;22.53
53412;BMP280;39307;52.870;13.660;2022-09-09T15:10:18;100499.00;;;22.41
53412;BMP280;39307;52.870;13.660;2022-09-09T15:12:44;100496.84;;;22.33
53412;BMP280;39307;52.870;13.660;2022-09-09T15:15:11;100503.50;;;22.31
53412;BMP280;39307;52.870;13.660;2022-09-09T15:17:37;100500.84;;;22.26
53412;BMP280;39307;52.870;13.660;2022-09-09T15:20:04;100499.50;;;22.29
53412;BMP280;39307;52.870;13.660;2022-09-09T15:22:30;100503.75;;;22.25
53412;BMP280;39307;52.870;13.660;2022-09-09T15:24:56;100493.09;;;22.20
53412;BMP280;39307;52.870;13.660;2022-09-09T15:27:23;100498.13;;;22.16
53412;BMP280;39307;52.870;13.660;2022-09-09T15:29:49;100493.34;;;22.18
53412;BMP280;39307;52.870;13.660;2022-09-09T15:32:16;100485.59;;;22.12
53412;BMP280;39307;52.870;13.660;2022-09-09T15:34:42;100487.19;;;22.08
53412;BMP280;39307;52.870;13.660;2022-09-09T15:37:10;100495.91;;;22.03
53412;BMP280;39307;52.870;13.660;2022-09-09T15:39:36;100492.19;;;21.99
53412;BMP280;39307;52.870;13.660;2022-09-09T15:42:03;100500.94;;;21.95
53412;BMP280;39307;52.870;13.660;2022-09-09T15:44:29;100499.63;;;21.93
53412;BMP280;39307;52.870;13.660;2022-09-09T15:46:55;100496.69;;;21.89
53412;BMP280;39307;52.870;13.660;2022-09-09T15:49:25;100500.91;;;21.85
53412;BMP280;39307;52.870;13.660;2022-09-09T15:51:57;100505.72;;;21.83
53412;BMP280;39307;52.870;13.660;2022-09-09T15:54:25;100499.03;;;21.86
53412;BMP280;39307;52.870;13.660;2022-09-09T15:56:54;100503.84;;;21.84
53412;BMP280;39307;52.870;13.660;2022-09-09T15:59:21;100501.41;;;21.77